createdAt,value
2023-01-15T00:00:21.416Z,13.91
2023-01-15T00:02:53.403Z,14.21
2023-01-15T00:05:24.015Z,13.51
2023-01-15T00:07:54.476Z,14.02
2023-01-15T00:10:24.935Z,13.52
2023-01-15T00:12:55.363Z,13.74
2023-01-15T00:15:25.803Z,13.15
2023-01-15T00:17:58.105Z,13.94
2023-01-15T00:20:32.000Z,13.68
2023-01-15T00:23:10.034Z,13.88
2023-01-15T00:25:58.062Z,13.93
2023-01-15T00:28:28.642Z,14.08
2023-01-15T00:30:59.319Z,14.31
2023-01-15T00:33:29.790Z,14.36
2023-01-15T00:36:00.251Z,14.78
2023-01-15T00:38:30.901Z,14.66
2023-01-15T00:41:01.379Z,14.62
2023-01-15T00:43:31.820Z,14.76
2023-01-15T00:46:02.241Z,14.96
2023-01-15T00:48:33.083Z,15.54
2023-01-15T00:51:04.296Z,14.74
2023-01-15T00:53:34.931Z,15.24
2023-01-15T00:56:05.500Z,14.17
2023-01-15T00:58:35.909Z,14.89
2023-01-15T01:01:06.482Z,14.03
2023-01-15T01:03:36.954Z,14.98
2023-01-15T01:06:07.654Z,15.34
2023-01-15T01:08:38.098Z,14.98
2023-01-15T01:11:14.795Z,14.61
2023-01-15T01:13:45.695Z,14.25
2023-01-15T01:16:36.002Z,14.17
2023-01-15T01:19:15.569Z,15.33
2023-01-15T01:21:47.080Z,14.78
2023-01-15T01:24:20.442Z,14.73
2023-01-15T01:26:54.335Z,14.40
2023-01-15T01:29:24.802Z,14.22
2023-01-15T01:31:55.269Z,14.22
2023-01-15T01:34:25.700Z,14.65
2023-01-15T01:36:56.112Z,14.68
2023-01-15T01:39:26.662Z,14.85
2023-01-15T01:41:57.068Z,16.49
2023-01-15T01:44:39.533Z,15.29
2023-01-15T01:47:12.582Z,14.44
2023-01-15T01:49:44.957Z,14.66
2023-01-15T01:52:21.234Z,14.94
2023-01-15T01:54:52.496Z,15.22
2023-01-15T01:57:23.522Z,14.98
2023-01-15T01:59:54.457Z,14.65
2023-01-15T02:02:25.337Z,14.25
2023-01-15T02:04:55.882Z,14.51
2023-01-15T02:07:27.148Z,14.27
2023-01-15T02:09:57.608Z,14.70
2023-01-15T02:12:36.533Z,14.38
2023-01-15T02:15:22.669Z,15.46
2023-01-15T02:18:20.124Z,15.01
2023-01-15T02:20:53.504Z,14.24
2023-01-15T02:23:51.629Z,14.86
2023-01-15T02:26:36.968Z,15.70
2023-01-15T02:29:10.272Z,14.50
2023-01-15T02:31:43.913Z,15.41
2023-01-15T02:34:17.250Z,15.49
2023-01-15T02:36:50.574Z,15.04
2023-01-15T02:39:23.751Z,15.04
2023-01-15T02:41:57.113Z,14.97
2023-01-15T02:44:30.534Z,15.09
2023-01-15T02:47:02.923Z,15.00
2023-01-15T02:49:35.243Z,14.79
2023-01-15T02:52:11.401Z,15.05
2023-01-15T02:54:47.078Z,14.97
2023-01-15T02:57:19.493Z,15.50
2023-01-15T02:59:51.438Z,15.63
2023-01-15T03:02:27.519Z,15.23
2023-01-15T03:05:01.088Z,15.76
2023-01-15T03:07:40.470Z,16.09
2023-01-15T03:10:13.288Z,15.33
2023-01-15T03:13:04.390Z,15.86
2023-01-15T03:16:04.650Z,15.23
2023-01-15T03:18:43.861Z,16.11
2023-01-15T03:21:20.825Z,15.28
2023-01-15T03:23:53.507Z,15.54
2023-01-15T03:26:23.967Z,15.69
2023-01-15T03:28:54.759Z,15.62
2023-01-15T03:31:25.217Z,15.24
2023-01-15T03:33:56.113Z,15.24
2023-01-15T03:36:27.080Z,15.70
2023-01-15T03:38:59.854Z,15.49
2023-01-15T03:41:39.001Z,15.93
2023-01-15T03:44:15.131Z,16.49
2023-01-15T03:47:07.659Z,15.96
2023-01-15T03:49:43.712Z,17.01
2023-01-15T03:52:22.987Z,16.38
2023-01-15T03:55:05.499Z,16.04
2023-01-15T03:57:47.578Z,16.82
2023-01-15T04:00:24.713Z,15.73
2023-01-15T04:02:57.637Z,15.68
2023-01-15T04:05:29.578Z,16.19
2023-01-15T04:08:01.384Z,16.19
2023-01-15T04:10:31.924Z,15.73
2023-01-15T04:13:02.411Z,16.69
2023-01-15T04:15:32.886Z,16.69
2023-01-15T04:18:03.391Z,15.91
2023-01-15T04:20:33.823Z,16.30
2023-01-15T04:23:04.247Z,15.57
2023-01-15T04:25:34.698Z,15.40
2023-01-15T04:28:05.138Z,15.45
2023-01-15T04:30:36.258Z,15.21
2023-01-15T04:33:06.846Z,15.30
2023-01-15T04:35:38.826Z,15.30
2023-01-15T04:38:09.359Z,15.63
2023-01-15T04:40:57.314Z,16.26
2023-01-15T04:43:45.225Z,15.39
2023-01-15T04:46:16.040Z,15.40
2023-01-15T04:48:47.517Z,15.52
2023-01-15T04:51:18.066Z,15.54
2023-01-15T04:53:48.597Z,15.54
2023-01-15T04:56:19.047Z,15.65
2023-01-15T04:58:50.283Z,15.33
2023-01-15T05:01:20.844Z,15.33
2023-01-15T05:03:51.325Z,15.78
2023-01-15T05:06:21.783Z,15.57
2023-01-15T05:08:52.202Z,15.51
2023-01-15T05:11:22.658Z,16.12
2023-01-15T05:13:53.106Z,15.59
2023-01-15T05:16:25.793Z,15.32
2023-01-15T05:19:00.030Z,15.57
2023-01-15T05:21:33.598Z,15.94
2023-01-15T05:24:09.001Z,15.56
2023-01-15T05:26:39.436Z,15.78
2023-01-15T05:29:09.894Z,15.72
2023-01-15T05:31:42.024Z,15.49
2023-01-15T05:34:13.386Z,14.99
2023-01-15T05:36:43.799Z,15.15
2023-01-15T05:39:14.293Z,15.81
2023-01-15T05:41:51.195Z,16.37
2023-01-15T05:44:25.047Z,16.12
2023-01-15T05:46:58.814Z,15.88
2023-01-15T05:49:31.569Z,15.70
2023-01-15T05:52:03.016Z,15.22
2023-01-15T05:54:35.933Z,15.22
2023-01-15T05:57:06.416Z,15.99
2023-01-15T05:59:36.807Z,16.04
2023-01-15T06:02:07.363Z,16.23
2023-01-15T06:04:37.770Z,15.54
2023-01-15T06:07:08.491Z,15.42
2023-01-15T06:09:38.937Z,15.70
2023-01-15T06:12:09.494Z,14.99
2023-01-15T06:14:39.935Z,15.64
2023-01-15T06:17:10.448Z,15.35
2023-01-15T06:19:40.946Z,14.80
2023-01-15T06:22:11.370Z,14.61
2023-01-15T06:24:41.819Z,14.77
2023-01-15T06:27:12.293Z,15.06
2023-01-15T06:29:42.695Z,15.06
2023-01-15T06:32:14.757Z,15.87
2023-01-15T06:34:46.268Z,15.58
2023-01-15T06:37:16.737Z,17.44
2023-01-15T06:39:47.218Z,15.96
2023-01-15T06:42:35.216Z,15.70
2023-01-15T06:45:23.982Z,15.40
2023-01-15T06:47:54.574Z,15.95
2023-01-15T06:50:26.776Z,15.71
2023-01-15T06:52:57.255Z,15.48
2023-01-15T06:55:28.779Z,19.75
2023-01-15T06:57:59.208Z,18.81
2023-01-15T07:00:29.670Z,17.65
2023-01-15T07:03:04.401Z,17.98
2023-01-15T07:05:34.862Z,17.03
2023-01-15T07:08:05.500Z,18.33
2023-01-15T07:10:36.442Z,17.10
2023-01-15T07:13:07.608Z,17.50
2023-01-15T07:15:40.865Z,16.90
2023-01-15T07:18:11.347Z,17.70
2023-01-15T07:20:41.799Z,17.83
2023-01-15T07:23:12.260Z,17.47
2023-01-15T07:25:42.731Z,17.73
2023-01-15T07:28:13.178Z,18.86
2023-01-15T07:30:43.621Z,17.61
2023-01-15T07:33:14.067Z,17.98
2023-01-15T07:35:45.599Z,18.22
2023-01-15T07:38:16.096Z,17.91
2023-01-15T07:40:48.057Z,18.67
2023-01-15T07:43:36.103Z,17.33
2023-01-15T07:46:24.424Z,17.28
2023-01-15T07:49:18.015Z,18.11
2023-01-15T07:51:56.186Z,17.39
2023-01-15T07:54:52.334Z,17.48
2023-01-15T07:57:24.569Z,16.84
2023-01-15T07:59:56.650Z,16.49
2023-01-15T08:02:28.359Z,16.51
2023-01-15T08:05:01.755Z,16.23
2023-01-15T08:07:34.951Z,16.32
2023-01-15T08:10:05.756Z,16.31
2023-01-15T08:12:57.474Z,18.41
2023-01-15T08:15:31.611Z,16.73
2023-01-15T08:18:05.138Z,16.07
2023-01-15T08:20:39.825Z,17.08
2023-01-15T08:23:31.756Z,17.60
2023-01-15T08:26:04.844Z,16.72
2023-01-15T08:28:37.338Z,16.51
2023-01-15T08:31:12.822Z,16.31
2023-01-15T08:33:51.204Z,15.60
2023-01-15T08:36:30.730Z,16.16
2023-01-15T08:39:11.285Z,16.95
2023-01-15T08:41:46.843Z,16.45
2023-01-15T08:44:18.631Z,16.04
2023-01-15T08:46:53.159Z,16.04
2023-01-15T08:49:25.817Z,20.91
2023-01-15T08:51:56.917Z,18.07
2023-01-15T08:54:28.776Z,18.07
2023-01-15T08:57:02.699Z,19.53
2023-01-15T08:59:33.677Z,19.53
2023-01-15T09:02:05.422Z,18.95
2023-01-15T09:04:37.699Z,17.31
2023-01-15T09:07:16.575Z,17.58
2023-01-15T09:09:53.891Z,18.21
2023-01-15T09:12:28.634Z,17.85
2023-01-15T09:15:03.856Z,17.85
2023-01-15T09:17:37.309Z,17.12
2023-01-15T09:20:16.506Z,17.89
2023-01-15T09:22:50.732Z,18.90
2023-01-15T09:25:24.446Z,18.48
2023-01-15T09:28:01.753Z,17.19
2023-01-15T09:30:34.771Z,17.85
2023-01-15T09:33:09.794Z,17.82
2023-01-15T09:35:47.361Z,19.91
2023-01-15T09:38:20.621Z,18.72
2023-01-15T09:41:04.704Z,17.71
2023-01-15T09:43:50.479Z,18.02
2023-01-15T09:46:26.061Z,18.20
2023-01-15T09:49:21.287Z,18.26
2023-01-15T09:51:55.517Z,18.14
2023-01-15T09:54:55.827Z,17.66
2023-01-15T09:57:30.057Z,17.66
2023-01-15T10:00:06.195Z,16.90
2023-01-15T10:02:47.524Z,16.90
2023-01-15T10:05:31.303Z,17.06
2023-01-15T10:08:30.191Z,17.52
2023-01-15T10:11:10.315Z,19.36
2023-01-15T10:13:54.456Z,19.36
2023-01-15T10:16:31.783Z,18.65
2023-01-15T10:19:04.231Z,22.83
2023-01-15T10:21:57.292Z,19.19
2023-01-15T10:24:37.891Z,24.76
2023-01-15T10:27:20.796Z,21.04
2023-01-15T10:30:03.976Z,23.46
2023-01-15T10:33:02.090Z,22.41
2023-01-15T10:35:48.442Z,18.49
2023-01-15T10:38:32.764Z,19.19
2023-01-15T10:41:26.203Z,19.19
2023-01-15T10:44:02.154Z,16.89
2023-01-15T10:46:37.302Z,23.00
2023-01-15T10:49:16.696Z,23.00
2023-01-15T10:51:59.067Z,20.43
2023-01-15T10:54:35.109Z,20.43
2023-01-15T10:57:23.179Z,19.96
2023-01-15T11:00:02.381Z,19.96
2023-01-15T11:02:47.120Z,20.93
2023-01-15T11:05:20.517Z,20.24
2023-01-15T11:08:26.311Z,21.19
2023-01-15T11:10:26.021Z,21.07
2023-01-15T11:13:17.151Z,20.58
2023-01-15T11:16:08.620Z,19.94
2023-01-15T11:18:59.388Z,20.97
2023-01-15T11:21:31.213Z,20.02
2023-01-15T11:24:02.033Z,21.48
2023-01-15T11:26:34.142Z,21.22
2023-01-15T11:29:07.485Z,21.90
2023-01-15T11:31:42.277Z,21.77
2023-01-15T11:34:24.491Z,21.42
2023-01-15T11:37:05.839Z,20.71
2023-01-15T11:39:36.385Z,20.88
2023-01-15T11:42:26.803Z,19.66
2023-01-15T11:45:16.879Z,19.73
2023-01-15T11:48:12.555Z,20.05
2023-01-15T11:51:02.121Z,20.23
2023-01-15T11:53:35.505Z,20.40
2023-01-15T11:56:08.868Z,20.62
2023-01-15T11:58:50.756Z,20.44
2023-01-15T12:01:35.628Z,20.09
2023-01-15T12:04:09.349Z,18.97
2023-01-15T12:06:41.972Z,18.99
2023-01-15T12:09:18.052Z,19.35
2023-01-15T12:12:18.771Z,19.15
2023-01-15T12:15:18.930Z,19.40
2023-01-15T12:18:08.828Z,18.75
2023-01-15T12:20:47.516Z,19.33
2023-01-15T12:23:35.620Z,18.77
2023-01-15T12:26:13.499Z,18.55
2023-01-15T12:28:46.873Z,19.35
2023-01-15T12:31:20.215Z,18.77
2023-01-15T12:34:02.621Z,19.08
2023-01-15T12:36:38.694Z,18.73
2023-01-15T12:39:15.843Z,17.50
2023-01-15T12:42:06.520Z,17.50
2023-01-15T12:45:02.898Z,18.30
2023-01-15T12:47:43.208Z,18.15
2023-01-15T12:50:22.345Z,17.95
2023-01-15T12:52:55.687Z,17.97
2023-01-15T12:55:31.703Z,17.97
2023-01-15T12:58:05.030Z,18.12
2023-01-15T13:00:41.424Z,17.65
2023-01-15T13:03:30.369Z,17.75
2023-01-15T13:06:04.785Z,17.87
2023-01-15T13:08:41.597Z,17.30
2023-01-15T13:11:15.094Z,17.78
2023-01-15T13:13:47.400Z,17.48
2023-01-15T13:16:32.818Z,18.01
2023-01-15T13:19:21.066Z,17.99
2023-01-15T13:21:54.703Z,18.43
2023-01-15T13:24:37.763Z,17.51
2023-01-15T13:27:36.234Z,17.62
2023-01-15T13:30:15.270Z,16.60
2023-01-15T13:32:48.815Z,17.91
2023-01-15T13:35:33.818Z,17.03
2023-01-15T13:38:08.717Z,16.57
2023-01-15T13:40:46.673Z,17.98
2023-01-15T13:43:26.017Z,18.64
2023-01-15T13:45:58.183Z,17.21
2023-01-15T13:48:37.434Z,17.85
2023-01-15T13:51:10.365Z,16.90
2023-01-15T13:53:49.908Z,16.94
2023-01-15T13:56:36.429Z,16.94
2023-01-15T13:59:09.863Z,16.69
2023-01-15T14:01:40.423Z,16.73
2023-01-15T14:04:16.518Z,16.02
2023-01-15T14:06:49.973Z,15.94
2023-01-15T14:09:23.312Z,15.40
2023-01-15T14:12:08.795Z,15.01
2023-01-15T14:14:47.945Z,15.72
2023-01-15T14:17:30.127Z,15.58
2023-01-15T14:20:33.566Z,16.16
2023-01-15T14:23:38.753Z,15.96
2023-01-15T14:26:19.063Z,17.04
2023-01-15T14:28:56.025Z,15.01
2023-01-15T14:31:29.467Z,15.36
2023-01-15T14:34:19.409Z,15.57
2023-01-15T14:36:57.114Z,15.27
2023-01-15T14:39:33.803Z,14.58
2023-01-15T14:42:33.468Z,15.65
2023-01-15T14:45:06.828Z,15.47
2023-01-15T14:47:51.612Z,15.05
2023-01-15T14:50:34.804Z,14.93
2023-01-15T14:53:16.783Z,15.46
2023-01-15T14:56:04.834Z,14.88
2023-01-15T14:58:49.789Z,15.21
2023-01-15T15:01:32.177Z,16.11
2023-01-15T15:04:29.315Z,16.63
2023-01-15T15:07:05.551Z,14.47
2023-01-15T15:09:45.942Z,14.97
2023-01-15T15:12:25.032Z,14.67
2023-01-15T15:15:08.532Z,15.40
2023-01-15T15:17:47.214Z,14.94
2023-01-15T15:20:23.130Z,14.57
2023-01-15T15:22:56.618Z,14.37
2023-01-15T15:25:31.027Z,14.75
2023-01-15T15:28:07.125Z,15.04
2023-01-15T15:30:40.592Z,15.45
2023-01-15T15:33:13.942Z,14.31
2023-01-15T15:35:47.439Z,14.32
2023-01-15T15:38:20.144Z,14.96
2023-01-15T15:41:02.749Z,14.01
2023-01-15T15:44:02.831Z,14.60
2023-01-15T15:46:52.230Z,14.16
2023-01-15T15:49:23.634Z,15.27
2023-01-15T15:51:55.492Z,14.63
2023-01-15T15:54:27.966Z,13.54
2023-01-15T15:57:09.103Z,13.90
2023-01-15T15:59:45.540Z,14.48
2023-01-15T16:02:24.238Z,13.98
2023-01-15T16:05:03.371Z,13.86
2023-01-15T16:07:36.592Z,15.54
2023-01-15T16:10:18.771Z,15.46
2023-01-15T16:12:52.445Z,14.90
2023-01-15T16:15:27.111Z,14.72
2023-01-15T16:17:58.939Z,14.69
2023-01-15T16:20:29.983Z,13.74
2023-01-15T16:23:06.024Z,14.79
2023-01-15T16:25:42.115Z,14.27
2023-01-15T16:28:24.512Z,14.59
2023-01-15T16:31:03.153Z,16.34
2023-01-15T16:33:33.737Z,15.10
2023-01-15T16:36:05.874Z,15.35
2023-01-15T16:38:39.352Z,15.90
2023-01-15T16:41:32.296Z,15.21
2023-01-15T16:44:08.145Z,15.76
2023-01-15T16:46:41.572Z,13.79
2023-01-15T16:49:27.085Z,14.73
2023-01-15T16:51:59.713Z,13.81
2023-01-15T16:54:37.443Z,16.50
2023-01-15T16:57:28.777Z,15.76
2023-01-15T17:00:02.492Z,16.54
2023-01-15T17:02:44.724Z,15.81
2023-01-15T17:05:21.369Z,15.03
2023-01-15T17:07:54.509Z,16.18
2023-01-15T17:10:27.939Z,15.46
2023-01-15T17:12:59.174Z,14.52
2023-01-15T17:15:32.540Z,14.46
2023-01-15T17:18:06.159Z,14.00
2023-01-15T17:20:41.794Z,14.07
2023-01-15T17:23:13.991Z,14.40
2023-01-15T17:25:49.506Z,14.65
2023-01-15T17:28:24.806Z,14.37
2023-01-15T17:30:58.393Z,13.58
2023-01-15T17:33:30.141Z,14.51
2023-01-15T17:36:01.536Z,14.60
2023-01-15T17:38:33.630Z,13.76
2023-01-15T17:41:07.344Z,14.78
2023-01-15T17:43:38.938Z,14.83
2023-01-15T17:46:10.880Z,14.88
2023-01-15T17:48:43.854Z,13.92
2023-01-15T17:51:19.064Z,14.70
2023-01-15T17:53:52.604Z,14.64
2023-01-15T17:56:43.103Z,14.88
2023-01-15T17:59:33.276Z,15.10
2023-01-15T18:02:22.972Z,15.43
2023-01-15T18:05:17.416Z,14.88
2023-01-15T18:07:49.197Z,16.00
2023-01-15T18:10:24.778Z,16.59
2023-01-15T18:13:00.294Z,15.57
2023-01-15T18:15:31.101Z,15.67
2023-01-15T18:18:02.217Z,15.34
2023-01-15T18:20:35.512Z,14.59
2023-01-15T18:23:07.564Z,15.05
2023-01-15T18:25:46.081Z,14.33
2023-01-15T18:28:21.336Z,15.33
2023-01-15T18:30:55.134Z,15.20
2023-01-15T18:33:32.460Z,15.15
2023-01-15T18:36:10.774Z,15.32
2023-01-15T18:38:45.109Z,15.44
2023-01-15T18:41:38.445Z,15.70
2023-01-15T18:44:37.318Z,16.95
2023-01-15T18:47:17.385Z,15.52
2023-01-15T18:49:55.974Z,14.98
2023-01-15T18:52:53.438Z,15.27
2023-01-15T18:55:32.932Z,14.71
2023-01-15T18:58:12.580Z,15.58
2023-01-15T19:00:45.586Z,15.94
2023-01-15T19:03:20.910Z,15.89
2023-01-15T19:05:53.727Z,16.48
2023-01-15T19:08:33.690Z,15.27
2023-01-15T19:11:14.837Z,15.28
2023-01-15T19:13:53.807Z,14.80
2023-01-15T19:16:43.354Z,15.22
2023-01-15T19:19:22.568Z,14.95
2023-01-15T19:22:12.801Z,14.47
2023-01-15T19:24:47.514Z,14.35
2023-01-15T19:27:21.302Z,15.13
2023-01-15T19:29:56.624Z,14.96
2023-01-15T19:32:35.520Z,15.36
2023-01-15T19:35:10.099Z,14.18
2023-01-15T19:37:46.467Z,15.40
2023-01-15T19:40:23.453Z,15.01
2023-01-15T19:43:15.629Z,14.82
2023-01-15T19:46:23.173Z,15.00
2023-01-15T19:49:15.355Z,14.69
2023-01-15T19:52:04.394Z,14.35
2023-01-15T19:54:59.040Z,14.69
2023-01-15T19:57:31.976Z,15.30
2023-01-15T20:00:08.391Z,14.87
2023-01-15T20:02:40.654Z,15.05
2023-01-15T20:05:14.625Z,14.45
2023-01-15T20:07:48.026Z,15.25
2023-01-15T20:10:21.822Z,14.84
2023-01-15T20:16:12.607Z,14.62
2023-01-15T20:18:49.106Z,14.20
2023-01-15T20:21:31.458Z,14.13
2023-01-15T20:24:05.884Z,14.54
2023-01-15T20:26:38.756Z,13.65
2023-01-15T20:29:18.144Z,15.64
2023-01-15T20:31:52.440Z,14.56
2023-01-15T20:34:24.611Z,16.27
2023-01-15T20:37:00.898Z,14.28
2023-01-15T20:39:34.626Z,13.96
2023-01-15T20:42:25.771Z,15.06
2023-01-15T20:44:57.199Z,14.09
2023-01-15T20:47:47.526Z,13.25
2023-01-15T20:50:19.001Z,15.23
2023-01-15T20:52:54.543Z,14.97
2023-01-15T20:55:55.779Z,15.83
2023-01-15T20:58:22.197Z,16.12
2023-01-15T21:00:53.609Z,14.86
2023-01-15T21:03:27.179Z,16.50
2023-01-15T21:06:04.826Z,15.98
2023-01-15T21:08:37.058Z,14.01
2023-01-15T21:11:08.974Z,14.27
2023-01-15T21:13:42.643Z,15.30
2023-01-15T21:16:16.029Z,14.65
2023-01-15T21:18:49.571Z,14.17
2023-01-15T21:21:26.938Z,13.97
2023-01-15T21:24:02.278Z,15.18
2023-01-15T21:26:39.543Z,15.68
2023-01-15T21:29:17.758Z,14.39
2023-01-15T21:31:52.412Z,15.07
2023-01-15T21:34:24.491Z,13.86
2023-01-15T21:36:57.522Z,14.02
2023-01-15T21:39:29.102Z,14.15
2023-01-15T21:42:18.650Z,14.35
2023-01-15T21:44:53.446Z,15.46
2023-01-15T21:47:25.000Z,15.27
2023-01-15T21:49:59.837Z,15.57
2023-01-15T21:52:37.937Z,15.41
2023-01-15T21:55:10.662Z,14.51
2023-01-15T21:57:43.961Z,14.78
2023-01-15T22:00:21.218Z,16.02
2023-01-15T22:02:56.710Z,14.18
2023-01-15T22:05:30.984Z,14.36
2023-01-15T22:08:06.166Z,15.38
2023-01-15T22:10:38.442Z,15.24
2023-01-15T22:13:11.046Z,14.59
2023-01-15T22:15:49.350Z,14.79
2023-01-15T22:18:21.123Z,14.57
2023-01-15T22:21:03.950Z,14.59
2023-01-15T22:23:38.391Z,14.36
2023-01-15T22:26:22.728Z,14.01
2023-01-15T22:28:53.639Z,14.23
2023-01-15T22:31:24.072Z,14.72
2023-01-15T22:33:55.104Z,14.48
2023-01-15T22:36:27.270Z,13.44
2023-01-15T22:38:57.830Z,14.96
2023-01-15T22:41:46.376Z,14.07
2023-01-15T22:44:17.198Z,14.91
2023-01-15T22:46:50.580Z,14.53
2023-01-15T22:49:22.415Z,13.99
2023-01-15T22:51:55.983Z,14.02
2023-01-15T22:54:26.654Z,15.56
2023-01-15T22:56:57.270Z,14.50
2023-01-15T22:59:27.756Z,14.29
2023-01-15T23:01:59.561Z,14.25
2023-01-15T23:04:30.254Z,14.72
2023-01-15T23:07:02.480Z,14.50
2023-01-15T23:09:32.949Z,13.89
2023-01-15T23:12:03.782Z,14.98
2023-01-15T23:14:35.622Z,14.33
2023-01-15T23:17:06.333Z,13.36
2023-01-15T23:19:36.992Z,14.09
2023-01-15T23:22:07.501Z,14.12
2023-01-15T23:24:38.225Z,14.66
2023-01-15T23:27:08.701Z,13.31
2023-01-15T23:29:39.180Z,14.48
2023-01-15T23:32:10.540Z,14.41
2023-01-15T23:34:41.041Z,13.36
2023-01-15T23:37:11.728Z,14.29
2023-01-15T23:39:42.300Z,14.64
2023-01-15T23:42:32.144Z,14.74
2023-01-15T23:45:20.727Z,14.02
2023-01-15T23:47:51.315Z,13.83
2023-01-15T23:50:21.789Z,14.11
2023-01-15T23:52:53.526Z,13.88
2023-01-15T23:55:23.979Z,13.85
2023-01-15T23:57:54.485Z,13.67
